sensor_id;sensor_type;location;lat;lon;timestamp;temperature;humidity
3186;DHT22;1604;53.700;10.252;2022-12-17T00:01:31;-3.40;99.90
3186;DHT22;1604;53.700;10.252;2022-12-17T00:04:52;-3.50;99.90
3186;DHT22;1604;53.700;10.252;2022-12-17T00:08:11;-3.50;99.90
3186;DHT22;1604;53.700;10.252;2022-12-17T00:11:30;-3.50;99.90
3186;DHT22;1604;53.700;10.252;2022-12-17T00:14:49;-3.50;99.90
3186;DHT22;1604;53.700;10.252;2022-12-17T00:18:09;-3.60;99.90
3186;DHT22;1604;53.700;10.252;2022-12-17T00:21:36;-3.60;99.90
3186;DHT22;1604;53.700;10.252;2022-12-17T00:24:55;-3.60;99.90
3186;DHT22;1604;53.700;10.252;2022-12-17T00:28:15;-3.60;99.90
3186;DHT22;1604;53.700;10.252;2022-12-17T00:31:34;-3.70;99.90
3186;DHT22;1604;53.700;10.252;2022-12-17T00:34:54;-3.70;99.90
3186;DHT22;1604;53.700;10.252;2022-12-17T00:38:19;-3.70;99.90
3186;DHT22;1604;53.700;10.252;2022-12-17T00:41:49;-3.80;99.90
3186;DHT22;1604;53.700;10.252;2022-12-17T00:45:09;-3.80;99.90
3186;DHT22;1604;53.700;10.252;2022-12-17T00:48:29;-3.80;99.90
3186;DHT22;1604;53.700;10.252;2022-12-17T00:51:50;-3.90;99.90
3186;DHT22;1604;53.700;10.252;2022-12-17T00:55:23;-3.90;99.90
3186;DHT22;1604;53.700;10.252;2022-12-17T00:58:44;-3.90;99.90
3186;DHT22;1604;53.700;10.252;2022-12-17T01:02:04;-4.00;99.90
3186;DHT22;1604;53.700;10.252;2022-12-17T01:05:23;-4.00;99.90
3186;DHT22;1604;53.700;10.252;2022-12-17T01:08:42;-4.00;99.90
3186;DHT22;1604;53.700;10.252;2022-12-17T01:12:03;-4.10;99.90
3186;DHT22;1604;53.700;10.252;2022-12-17T01:15:22;-4.10;99.90
3186;DHT22;1604;53.700;10.252;2022-12-17T01:18:43;-4.10;99.90
3186;DHT22;1604;53.700;10.252;2022-12-17T01:22:03;-4.10;99.90
3186;DHT22;1604;53.700;10.252;2022-12-17T01:25:22;-4.20;99.90
3186;DHT22;1604;53.700;10.252;2022-12-17T01:28:43;-4.20;99.90
3186;DHT22;1604;53.700;10.252;2022-12-17T01:32:03;-4.20;99.90
3186;DHT22;1604;53.700;10.252;2022-12-17T01:35:24;-4.20;99.90
3186;DHT22;1604;53.700;10.252;2022-12-17T01:38:44;-4.20;99.90
3186;DHT22;1604;53.700;10.252;2022-12-17T01:42:03;-4.10;99.90
3186;DHT22;1604;53.700;10.252;2022-12-17T01:45:25;-4.10;99.90
3186;DHT22;1604;53.700;10.252;2022-12-17T01:48:46;-4.10;99.90
3186;DHT22;1604;53.700;10.252;2022-12-17T01:52:09;-4.10;99.90
3186;DHT22;1604;53.700;10.252;2022-12-17T01:55:29;-4.10;99.90
3186;DHT22;1604;53.700;10.252;2022-12-17T01:58:49;-4.10;99.90
3186;DHT22;1604;53.700;10.252;2022-12-17T02:02:09;-4.10;99.90
3186;DHT22;1604;53.700;10.252;2022-12-17T02:05:39;-4.20;99.90
3186;DHT22;1604;53.700;10.252;2022-12-17T02:09:06;-4.20;99.90
3186;DHT22;1604;53.700;10.252;2022-12-17T02:12:33;-4.20;99.90
3186;DHT22;1604;53.700;10.252;2022-12-17T02:16:05;-4.30;99.90
3186;DHT22;1604;53.700;10.252;2022-12-17T02:19:36;-4.30;99.90
3186;DHT22;1604;53.700;10.252;2022-12-17T02:23:09;-4.40;99.90
3186;DHT22;1604;53.700;10.252;2022-12-17T02:26:36;-4.40;99.90
3186;DHT22;1604;53.700;10.252;2022-12-17T02:30:03;-4.50;99.90
3186;DHT22;1604;53.700;10.252;2022-12-17T02:33:25;-4.50;99.90
3186;DHT22;1604;53.700;10.252;2022-12-17T02:36:45;-4.50;99.90
3186;DHT22;1604;53.700;10.252;2022-12-17T02:40:07;-4.50;99.90
3186;DHT22;1604;53.700;10.252;2022-12-17T02:43:32;-4.50;99.90
3186;DHT22;1604;53.700;10.252;2022-12-17T02:46:56;-4.50;99.90
3186;DHT22;1604;53.700;10.252;2022-12-17T02:50:19;-4.50;99.90
3186;DHT22;1604;53.700;10.252;2022-12-17T02:53:43;-4.50;99.90
3186;DHT22;1604;53.700;10.252;2022-12-17T02:57:02;-4.60;99.90
3186;DHT22;1604;53.700;10.252;2022-12-17T03:00:23;-4.60;99.90
3186;DHT22;1604;53.700;10.252;2022-12-17T03:03:42;-4.70;99.90
3186;DHT22;1604;53.700;10.252;2022-12-17T03:07:01;-4.70;99.90
3186;DHT22;1604;53.700;10.252;2022-12-17T03:10:20;-4.80;99.90
3186;DHT22;1604;53.700;10.252;2022-12-17T03:13:40;-4.80;99.90
3186;DHT22;1604;53.700;10.252;2022-12-17T03:17:01;-4.90;99.90
3186;DHT22;1604;53.700;10.252;2022-12-17T03:20:20;-5.00;99.90
3186;DHT22;1604;53.700;10.252;2022-12-17T03:23:39;-5.00;99.90
3186;DHT22;1604;53.700;10.252;2022-12-17T03:26:59;-5.00;99.90
3186;DHT22;1604;53.700;10.252;2022-12-17T03:30:26;-5.10;99.90
3186;DHT22;1604;53.700;10.252;2022-12-17T03:33:52;-5.10;99.90
3186;DHT22;1604;53.700;10.252;2022-12-17T03:37:12;-5.20;99.90
3186;DHT22;1604;53.700;10.252;2022-12-17T03:40:31;-5.20;99.90
3186;DHT22;1604;53.700;10.252;2022-12-17T03:43:50;-5.30;99.90
3186;DHT22;1604;53.700;10.252;2022-12-17T03:47:10;-5.30;99.90
3186;DHT22;1604;53.700;10.252;2022-12-17T03:50:31;-5.40;99.90
3186;DHT22;1604;53.700;10.252;2022-12-17T03:53:50;-5.40;99.90
3186;DHT22;1604;53.700;10.252;2022-12-17T03:57:09;-5.50;99.90
3186;DHT22;1604;53.700;10.252;2022-12-17T04:00:29;-5.50;99.90
3186;DHT22;1604;53.700;10.252;2022-12-17T04:03:48;-5.60;99.90
3186;DHT22;1604;53.700;10.252;2022-12-17T04:07:09;-5.60;99.90
3186;DHT22;1604;53.700;10.252;2022-12-17T04:10:28;-5.60;99.90
3186;DHT22;1604;53.700;10.252;2022-12-17T04:13:47;-5.60;99.90
3186;DHT22;1604;53.700;10.252;2022-12-17T04:17:07;-5.70;99.90
3186;DHT22;1604;53.700;10.252;2022-12-17T04:20:26;-5.70;99.90
3186;DHT22;1604;53.700;10.252;2022-12-17T04:23:48;-5.70;99.90
3186;DHT22;1604;53.700;10.252;2022-12-17T04:27:07;-5.80;99.90
3186;DHT22;1604;53.700;10.252;2022-12-17T04:30:26;-5.80;99.90
3186;DHT22;1604;53.700;10.252;2022-12-17T04:33:46;-5.80;99.90
3186;DHT22;1604;53.700;10.252;2022-12-17T04:37:05;-5.90;99.90
3186;DHT22;1604;53.700;10.252;2022-12-17T04:40:26;-5.90;99.90
3186;DHT22;1604;53.700;10.252;2022-12-17T04:43:45;-6.00;99.90
3186;DHT22;1604;53.700;10.252;2022-12-17T04:47:05;-6.00;99.90
3186;DHT22;1604;53.700;10.252;2022-12-17T04:50:24;-6.00;99.90
3186;DHT22;1604;53.700;10.252;2022-12-17T04:53:43;-6.00;99.90
3186;DHT22;1604;53.700;10.252;2022-12-17T04:57:03;-6.10;99.90
3186;DHT22;1604;53.700;10.252;2022-12-17T05:00:23;-6.10;99.90
3186;DHT22;1604;53.700;10.252;2022-12-17T05:03:42;-6.10;99.90
3186;DHT22;1604;53.700;10.252;2022-12-17T05:07:01;-6.20;99.90
3186;DHT22;1604;53.700;10.252;2022-12-17T05:10:21;-6.20;99.90
3186;DHT22;1604;53.700;10.252;2022-12-17T05:13:45;-6.30;99.90
3186;DHT22;1604;53.700;10.252;2022-12-17T05:17:05;-6.30;99.90
3186;DHT22;1604;53.700;10.252;2022-12-17T05:20:24;-6.40;99.90
3186;DHT22;1604;53.700;10.252;2022-12-17T05:23:43;-6.40;99.90
3186;DHT22;1604;53.700;10.252;2022-12-17T05:27:03;-6.40;99.90
3186;DHT22;1604;53.700;10.252;2022-12-17T05:30:24;-6.50;99.90
3186;DHT22;1604;53.700;10.252;2022-12-17T05:33:54;-6.50;99.90
3186;DHT22;1604;53.700;10.252;2022-12-17T05:37:14;-6.50;99.90
3186;DHT22;1604;53.700;10.252;2022-12-17T05:40:30;-6.60;99.90
3186;DHT22;1604;53.700;10.252;2022-12-17T05:43:49;-6.60;99.90
3186;DHT22;1604;53.700;10.252;2022-12-17T05:47:10;-6.70;99.90
3186;DHT22;1604;53.700;10.252;2022-12-17T05:50:29;-6.70;99.90
3186;DHT22;1604;53.700;10.252;2022-12-17T05:53:52;-6.70;99.90
3186;DHT22;1604;53.700;10.252;2022-12-17T05:57:17;-6.70;99.90
3186;DHT22;1604;53.700;10.252;2022-12-17T06:00:36;-6.70;99.90
3186;DHT22;1604;53.700;10.252;2022-12-17T06:03:57;-6.80;99.90
3186;DHT22;1604;53.700;10.252;2022-12-17T06:07:16;-6.80;99.90
3186;DHT22;1604;53.700;10.252;2022-12-17T06:10:36;-6.80;99.90
3186;DHT22;1604;53.700;10.252;2022-12-17T06:13:55;-6.80;99.90
3186;DHT22;1604;53.700;10.252;2022-12-17T06:17:20;-6.90;99.90
3186;DHT22;1604;53.700;10.252;2022-12-17T06:20:37;-6.90;99.90
3186;DHT22;1604;53.700;10.252;2022-12-17T06:24:00;-6.90;99.90
3186;DHT22;1604;53.700;10.252;2022-12-17T06:27:22;-6.90;99.90
3186;DHT22;1604;53.700;10.252;2022-12-17T06:30:50;-6.90;99.90
3186;DHT22;1604;53.700;10.252;2022-12-17T06:34:11;-7.00;99.90
3186;DHT22;1604;53.700;10.252;2022-12-17T06:37:32;-7.00;99.90
3186;DHT22;1604;53.700;10.252;2022-12-17T06:40:51;-7.00;99.90
3186;DHT22;1604;53.700;10.252;2022-12-17T06:44:11;-7.00;99.90
3186;DHT22;1604;53.700;10.252;2022-12-17T06:47:30;-7.10;99.90
3186;DHT22;1604;53.700;10.252;2022-12-17T06:50:50;-7.10;99.90
3186;DHT22;1604;53.700;10.252;2022-12-17T06:54:12;-7.20;99.90
3186;DHT22;1604;53.700;10.252;2022-12-17T06:57:32;-7.20;99.90
3186;DHT22;1604;53.700;10.252;2022-12-17T07:00:51;-7.30;99.90
3186;DHT22;1604;53.700;10.252;2022-12-17T07:04:10;-7.30;99.90
3186;DHT22;1604;53.700;10.252;2022-12-17T07:07:30;-7.20;99.90
3186;DHT22;1604;53.700;10.252;2022-12-17T07:10:50;-7.00;99.90
3186;DHT22;1604;53.700;10.252;2022-12-17T07:14:10;-6.90;99.90
3186;DHT22;1604;53.700;10.252;2022-12-17T07:17:29;-6.70;99.90
3186;DHT22;1604;53.700;10.252;2022-12-17T07:20:51;-6.60;99.90
3186;DHT22;1604;53.700;10.252;2022-12-17T07:24:11;-6.50;99.90
3186;DHT22;1604;53.700;10.252;2022-12-17T07:27:31;-6.40;99.90
3186;DHT22;1604;53.700;10.252;2022-12-17T07:30:51;-6.40;99.90
3186;DHT22;1604;53.700;10.252;2022-12-17T07:34:10;-6.30;99.90
3186;DHT22;1604;53.700;10.252;2022-12-17T07:37:29;-6.30;99.90
3186;DHT22;1604;53.700;10.252;2022-12-17T07:40:48;-6.30;99.90
3186;DHT22;1604;53.700;10.252;2022-12-17T07:44:09;-6.20;99.90
3186;DHT22;1604;53.700;10.252;2022-12-17T07:47:28;-6.10;99.90
3186;DHT22;1604;53.700;10.252;2022-12-17T07:50:48;-6.00;99.90
3186;DHT22;1604;53.700;10.252;2022-12-17T07:54:08;-5.90;99.90
3186;DHT22;1604;53.700;10.252;2022-12-17T07:57:27;-5.80;99.90
3186;DHT22;1604;53.700;10.252;2022-12-17T08:00:47;-5.80;99.90
3186;DHT22;1604;53.700;10.252;2022-12-17T08:04:07;-5.70;99.90
3186;DHT22;1604;53.700;10.252;2022-12-17T08:07:26;-5.60;99.90
3186;DHT22;1604;53.700;10.252;2022-12-17T08:10:48;-5.60;99.90
3186;DHT22;1604;53.700;10.252;2022-12-17T08:14:22;-5.50;99.90
3186;DHT22;1604;53.700;10.252;2022-12-17T08:17:43;-5.40;99.90
3186;DHT22;1604;53.700;10.252;2022-12-17T08:21:02;-5.30;99.90
3186;DHT22;1604;53.700;10.252;2022-12-17T08:24:22;-5.30;99.90
3186;DHT22;1604;53.700;10.252;2022-12-17T08:27:41;-5.20;99.90
3186;DHT22;1604;53.700;10.252;2022-12-17T08:31:00;-5.20;99.90
3186;DHT22;1604;53.700;10.252;2022-12-17T08:34:21;-5.20;99.90
3186;DHT22;1604;53.700;10.252;2022-12-17T08:37:40;-5.10;99.90
3186;DHT22;1604;53.700;10.252;2022-12-17T08:41:00;-5.00;99.90
3186;DHT22;1604;53.700;10.252;2022-12-17T08:44:19;-5.00;99.90
3186;DHT22;1604;53.700;10.252;2022-12-17T08:47:38;-4.90;99.90
3186;DHT22;1604;53.700;10.252;2022-12-17T08:51:03;-4.90;99.90
3186;DHT22;1604;53.700;10.252;2022-12-17T08:54:31;-4.80;99.90
3186;DHT22;1604;53.700;10.252;2022-12-17T08:57:54;-4.90;99.90
3186;DHT22;1604;53.700;10.252;2022-12-17T09:01:14;-4.90;99.90
3186;DHT22;1604;53.700;10.252;2022-12-17T09:04:33;-4.80;99.90
3186;DHT22;1604;53.700;10.252;2022-12-17T09:07:59;-4.70;99.90
3186;DHT22;1604;53.700;10.252;2022-12-17T09:11:19;-4.60;99.90
3186;DHT22;1604;53.700;10.252;2022-12-17T09:14:38;-4.60;99.90
3186;DHT22;1604;53.700;10.252;2022-12-17T09:17:57;-4.50;99.90
3186;DHT22;1604;53.700;10.252;2022-12-17T09:21:16;-4.50;99.90
3186;DHT22;1604;53.700;10.252;2022-12-17T09:24:37;-4.50;99.90
3186;DHT22;1604;53.700;10.252;2022-12-17T09:28:00;-4.40;99.90
3186;DHT22;1604;53.700;10.252;2022-12-17T09:31:19;-4.40;99.90
3186;DHT22;1604;53.700;10.252;2022-12-17T09:34:39;-4.40;99.90
3186;DHT22;1604;53.700;10.252;2022-12-17T09:37:58;-4.40;99.90
3186;DHT22;1604;53.700;10.252;2022-12-17T09:41:24;-4.40;99.90
3186;DHT22;1604;53.700;10.252;2022-12-17T09:44:48;-4.30;99.90
3186;DHT22;1604;53.700;10.252;2022-12-17T09:48:14;-4.30;99.90
3186;DHT22;1604;53.700;10.252;2022-12-17T09:51:36;-4.20;99.90
3186;DHT22;1604;53.700;10.252;2022-12-17T09:54:56;-4.10;99.90
3186;DHT22;1604;53.700;10.252;2022-12-17T09:58:20;-4.10;99.90
3186;DHT22;1604;53.700;10.252;2022-12-17T10:01:42;-4.00;99.90
3186;DHT22;1604;53.700;10.252;2022-12-17T10:05:03;-4.00;99.90
3186;DHT22;1604;53.700;10.252;2022-12-17T10:08:26;-3.90;99.90
3186;DHT22;1604;53.700;10.252;2022-12-17T10:11:46;-3.90;99.90
3186;DHT22;1604;53.700;10.252;2022-12-17T10:15:13;-3.80;99.90
3186;DHT22;1604;53.700;10.252;2022-12-17T10:18:33;-3.80;99.90
3186;DHT22;1604;53.700;10.252;2022-12-17T10:22:09;-3.70;99.90
3186;DHT22;1604;53.700;10.252;2022-12-17T10:25:29;-3.60;99.90
3186;DHT22;1604;53.700;10.252;2022-12-17T10:28:48;-3.50;99.90
3186;DHT22;1604;53.700;10.252;2022-12-17T10:32:19;-3.50;99.90
3186;DHT22;1604;53.700;10.252;2022-12-17T10:35:39;-3.40;99.90
3186;DHT22;1604;53.700;10.252;2022-12-17T10:38:59;-3.40;99.90
3186;DHT22;1604;53.700;10.252;2022-12-17T10:42:21;-3.30;99.90
3186;DHT22;1604;53.700;10.252;2022-12-17T10:45:52;-3.30;99.90
3186;DHT22;1604;53.700;10.252;2022-12-17T10:49:15;-3.20;99.90
3186;DHT22;1604;53.700;10.252;2022-12-17T10:52:36;-3.10;99.90
3186;DHT22;1604;53.700;10.252;2022-12-17T10:55:56;-3.00;99.90
3186;DHT22;1604;53.700;10.252;2022-12-17T10:59:29;-2.90;99.90
3186;DHT22;1604;53.700;10.252;2022-12-17T11:02:49;-2.90;99.90
3186;DHT22;1604;53.700;10.252;2022-12-17T11:06:11;-2.80;99.90
3186;DHT22;1604;53.700;10.252;2022-12-17T11:09:38;-2.70;99.90
3186;DHT22;1604;53.700;10.252;2022-12-17T11:13:02;-2.60;99.90
3186;DHT22;1604;53.700;10.252;2022-12-17T11:16:24;-2.50;99.90
3186;DHT22;1604;53.700;10.252;2022-12-17T11:19:47;-2.50;99.90
3186;DHT22;1604;53.700;10.252;2022-12-17T11:23:13;-2.40;99.90
3186;DHT22;1604;53.700;10.252;2022-12-17T11:26:37;-2.40;99.90
3186;DHT22;1604;53.700;10.252;2022-12-17T11:29:57;-2.30;99.90
3186;DHT22;1604;53.700;10.252;2022-12-17T11:33:21;-2.30;99.90
3186;DHT22;1604;53.700;10.252;2022-12-17T11:36:49;-2.20;99.90
3186;DHT22;1604;53.700;10.252;2022-12-17T11:40:20;-2.20;99.90
3186;DHT22;1604;53.700;10.252;2022-12-17T11:43:43;-2.10;99.90
3186;DHT22;1604;53.700;10.252;2022-12-17T11:47:14;-2.10;99.90
3186;DHT22;1604;53.700;10.252;2022-12-17T11:50:42;-2.10;99.90
3186;DHT22;1604;53.700;10.252;2022-12-17T11:54:08;-2.00;99.90
3186;DHT22;1604;53.700;10.252;2022-12-17T11:57:40;-1.90;99.90
3186;DHT22;1604;53.700;10.252;2022-12-17T12:01:05;-1.80;99.90
3186;DHT22;1604;53.700;10.252;2022-12-17T12:04:47;-1.70;99.90
3186;DHT22;1604;53.700;10.252;2022-12-17T12:08:17;-1.60;99.90
3186;DHT22;1604;53.700;10.252;2022-12-17T12:11:47;-1.50;99.90
3186;DHT22;1604;53.700;10.252;2022-12-17T12:28:05;-1.20;99.90
3186;DHT22;1604;53.700;10.252;2022-12-17T12:31:35;-1.20;99.90
3186;DHT22;1604;53.700;10.252;2022-12-17T12:34:58;-1.10;99.90
3186;DHT22;1604;53.700;10.252;2022-12-17T12:38:24;-1.10;99.90
3186;DHT22;1604;53.700;10.252;2022-12-17T12:41:52;-1.10;99.90
3186;DHT22;1604;53.700;10.252;2022-12-17T12:45:28;-1.00;99.90
3186;DHT22;1604;53.700;10.252;2022-12-17T12:48:53;-0.90;99.90
3186;DHT22;1604;53.700;10.252;2022-12-17T12:52:17;-0.80;99.90
3186;DHT22;1604;53.700;10.252;2022-12-17T12:55:43;-0.80;99.90
3186;DHT22;1604;53.700;10.252;2022-12-17T12:59:10;-0.70;99.90
3186;DHT22;1604;53.700;10.252;2022-12-17T13:02:31;-0.60;99.90
3186;DHT22;1604;53.700;10.252;2022-12-17T13:05:51;-0.60;99.90
3186;DHT22;1604;53.700;10.252;2022-12-17T13:09:03;-0.60;99.90
3186;DHT22;1604;53.700;10.252;2022-12-17T13:12:33;-0.60;99.90
3186;DHT22;1604;53.700;10.252;2022-12-17T13:15:40;-0.60;99.90
3186;DHT22;1604;53.700;10.252;2022-12-17T13:18:44;-0.60;99.90
3186;DHT22;1604;53.700;10.252;2022-12-17T13:21:46;-0.60;99.90
3186;DHT22;1604;53.700;10.252;2022-12-17T13:24:51;-0.70;99.90
3186;DHT22;1604;53.700;10.252;2022-12-17T13:27:53;-0.70;99.90
3186;DHT22;1604;53.700;10.252;2022-12-17T13:31:02;-0.80;99.90
3186;DHT22;1604;53.700;10.252;2022-12-17T13:34:14;-0.80;99.90
3186;DHT22;1604;53.700;10.252;2022-12-17T13:37:25;-0.80;99.90
3186;DHT22;1604;53.700;10.252;2022-12-17T13:40:35;-0.80;99.90
3186;DHT22;1604;53.700;10.252;2022-12-17T13:43:44;-0.90;99.90
3186;DHT22;1604;53.700;10.252;2022-12-17T13:46:49;-0.90;99.90
3186;DHT22;1604;53.700;10.252;2022-12-17T13:49:54;-0.90;99.90
3186;DHT22;1604;53.700;10.252;2022-12-17T13:52:56;-0.90;99.90
3186;DHT22;1604;53.700;10.252;2022-12-17T13:56:13;-1.00;99.90
3186;DHT22;1604;53.700;10.252;2022-12-17T13:59:18;-1.00;99.90
3186;DHT22;1604;53.700;10.252;2022-12-17T14:02:24;-1.00;99.90
3186;DHT22;1604;53.700;10.252;2022-12-17T14:05:31;-1.00;99.90
3186;DHT22;1604;53.700;10.252;2022-12-17T14:08:34;-1.10;99.90
3186;DHT22;1604;53.700;10.252;2022-12-17T14:11:36;-1.00;99.90
3186;DHT22;1604;53.700;10.252;2022-12-17T14:14:58;-1.10;99.90
3186;DHT22;1604;53.700;10.252;2022-12-17T14:18:01;-1.10;99.90
3186;DHT22;1604;53.700;10.252;2022-12-17T14:21:05;-1.20;99.90
3186;DHT22;1604;53.700;10.252;2022-12-17T14:24:10;-1.20;99.90
3186;DHT22;1604;53.700;10.252;2022-12-17T14:27:24;-1.20;99.90
3186;DHT22;1604;53.700;10.252;2022-12-17T14:30:35;-1.30;99.90
3186;DHT22;1604;53.700;10.252;2022-12-17T14:33:37;-1.30;99.90
3186;DHT22;1604;53.700;10.252;2022-12-17T14:36:42;-1.30;99.90
3186;DHT22;1604;53.700;10.252;2022-12-17T14:39:45;-1.40;99.90
3186;DHT22;1604;53.700;10.252;2022-12-17T14:42:49;-1.40;99.90
3186;DHT22;1604;53.700;10.252;2022-12-17T14:45:55;-1.40;99.90
3186;DHT22;1604;53.700;10.252;2022-12-17T14:49:17;-1.40;99.90
3186;DHT22;1604;53.700;10.252;2022-12-17T14:52:33;-1.50;99.90
3186;DHT22;1604;53.700;10.252;2022-12-17T14:55:37;-1.50;99.90
3186;DHT22;1604;53.700;10.252;2022-12-17T14:58:44;-1.50;99.90
3186;DHT22;1604;53.700;10.252;2022-12-17T15:01:46;-1.50;99.90
3186;DHT22;1604;53.700;10.252;2022-12-17T15:04:49;-1.50;99.90
3186;DHT22;1604;53.700;10.252;2022-12-17T15:07:53;-1.50;99.90
3186;DHT22;1604;53.700;10.252;2022-12-17T15:10:57;-1.50;99.90
3186;DHT22;1604;53.700;10.252;2022-12-17T15:13:59;-1.50;99.90
3186;DHT22;1604;53.700;10.252;2022-12-17T15:17:01;-1.50;99.90
3186;DHT22;1604;53.700;10.252;2022-12-17T15:20:03;-1.60;99.90
3186;DHT22;1604;53.700;10.252;2022-12-17T15:23:15;-1.60;99.90
3186;DHT22;1604;53.700;10.252;2022-12-17T15:26:17;-1.60;99.90
3186;DHT22;1604;53.700;10.252;2022-12-17T15:29:19;-1.60;99.90
3186;DHT22;1604;53.700;10.252;2022-12-17T15:32:22;-1.70;99.90
3186;DHT22;1604;53.700;10.252;2022-12-17T15:35:24;-1.70;99.90
3186;DHT22;1604;53.700;10.252;2022-12-17T15:38:27;-1.70;99.90
3186;DHT22;1604;53.700;10.252;2022-12-17T15:41:29;-1.70;99.90
3186;DHT22;1604;53.700;10.252;2022-12-17T15:44:48;-1.80;99.90
3186;DHT22;1604;53.700;10.252;2022-12-17T15:47:50;-1.80;99.90
3186;DHT22;1604;53.700;10.252;2022-12-17T15:50:52;-1.90;99.90
3186;DHT22;1604;53.700;10.252;2022-12-17T15:53:56;-1.80;99.90
3186;DHT22;1604;53.700;10.252;2022-12-17T15:56:58;-1.90;99.90
3186;DHT22;1604;53.700;10.252;2022-12-17T15:59:59;-1.90;99.90
3186;DHT22;1604;53.700;10.252;2022-12-17T16:03:02;-1.90;99.90
3186;DHT22;1604;53.700;10.252;2022-12-17T16:06:04;-1.90;99.90
3186;DHT22;1604;53.700;10.252;2022-12-17T16:09:07;-1.80;99.90
3186;DHT22;1604;53.700;10.252;2022-12-17T16:12:09;-1.80;99.90
3186;DHT22;1604;53.700;10.252;2022-12-17T16:15:11;-1.70;99.90
3186;DHT22;1604;53.700;10.252;2022-12-17T16:18:14;-1.70;99.90
3186;DHT22;1604;53.700;10.252;2022-12-17T16:21:17;-1.70;99.90
3186;DHT22;1604;53.700;10.252;2022-12-17T16:24:20;-1.70;99.90
3186;DHT22;1604;53.700;10.252;2022-12-17T16:27:22;-1.60;99.90
3186;DHT22;1604;53.700;10.252;2022-12-17T16:30:24;-1.60;99.90
3186;DHT22;1604;53.700;10.252;2022-12-17T16:33:26;-1.70;99.90
3186;DHT22;1604;53.700;10.252;2022-12-17T16:36:28;-1.70;99.90
3186;DHT22;1604;53.700;10.252;2022-12-17T16:39:32;-1.70;99.90
3186;DHT22;1604;53.700;10.252;2022-12-17T16:42:34;-1.70;99.90
3186;DHT22;1604;53.700;10.252;2022-12-17T16:45:45;-1.70;99.90
3186;DHT22;1604;53.700;10.252;2022-12-17T16:48:48;-1.70;99.90
3186;DHT22;1604;53.700;10.252;2022-12-17T16:51:52;-1.70;99.90
3186;DHT22;1604;53.700;10.252;2022-12-17T16:54:55;-1.70;99.90
3186;DHT22;1604;53.700;10.252;2022-12-17T16:57:57;-1.70;99.90
3186;DHT22;1604;53.700;10.252;2022-12-17T17:00:59;-1.80;99.90
3186;DHT22;1604;53.700;10.252;2022-12-17T17:04:02;-1.80;99.90
3186;DHT22;1604;53.700;10.252;2022-12-17T17:07:04;-1.80;99.90
3186;DHT22;1604;53.700;10.252;2022-12-17T17:10:08;-1.90;99.90
3186;DHT22;1604;53.700;10.252;2022-12-17T17:13:10;-1.90;99.90
3186;DHT22;1604;53.700;10.252;2022-12-17T17:16:13;-1.90;99.90
3186;DHT22;1604;53.700;10.252;2022-12-17T17:19:15;-1.90;99.90
3186;DHT22;1604;53.700;10.252;2022-12-17T17:22:17;-2.00;99.90
3186;DHT22;1604;53.700;10.252;2022-12-17T17:25:21;-2.00;99.90
3186;DHT22;1604;53.700;10.252;2022-12-17T17:28:23;-2.00;99.90
3186;DHT22;1604;53.700;10.252;2022-12-17T17:31:25;-2.00;99.90
3186;DHT22;1604;53.700;10.252;2022-12-17T17:34:27;-2.10;99.90
3186;DHT22;1604;53.700;10.252;2022-12-17T17:37:29;-2.10;99.90
3186;DHT22;1604;53.700;10.252;2022-12-17T17:40:32;-2.20;99.90
3186;DHT22;1604;53.700;10.252;2022-12-17T17:43:34;-2.20;99.90
3186;DHT22;1604;53.700;10.252;2022-12-17T17:46:36;-2.20;99.90
3186;DHT22;1604;53.700;10.252;2022-12-17T17:49:38;-2.30;99.90
3186;DHT22;1604;53.700;10.252;2022-12-17T17:52:40;-2.30;99.90
3186;DHT22;1604;53.700;10.252;2022-12-17T17:55:44;-2.30;99.90
3186;DHT22;1604;53.700;10.252;2022-12-17T17:58:47;-2.40;99.90
3186;DHT22;1604;53.700;10.252;2022-12-17T18:01:50;-2.40;99.90
3186;DHT22;1604;53.700;10.252;2022-12-17T18:04:55;-2.40;99.90
3186;DHT22;1604;53.700;10.252;2022-12-17T18:07:57;-2.40;99.90
3186;DHT22;1604;53.700;10.252;2022-12-17T18:11:07;-2.50;99.90
3186;DHT22;1604;53.700;10.252;2022-12-17T18:14:12;-2.50;99.90
3186;DHT22;1604;53.700;10.252;2022-12-17T18:17:13;-2.60;99.90
3186;DHT22;1604;53.700;10.252;2022-12-17T18:20:15;-2.60;99.90
3186;DHT22;1604;53.700;10.252;2022-12-17T18:23:23;-2.60;99.90
3186;DHT22;1604;53.700;10.252;2022-12-17T18:26:31;-2.70;99.90
3186;DHT22;1604;53.700;10.252;2022-12-17T18:29:38;-2.60;99.90
3186;DHT22;1604;53.700;10.252;2022-12-17T18:32:40;-2.70;99.90
3186;DHT22;1604;53.700;10.252;2022-12-17T18:35:44;-2.80;99.90
3186;DHT22;1604;53.700;10.252;2022-12-17T18:38:46;-2.90;99.90
3186;DHT22;1604;53.700;10.252;2022-12-17T18:41:50;-2.90;99.90
3186;DHT22;1604;53.700;10.252;2022-12-17T18:45:13;-2.80;99.90
3186;DHT22;1604;53.700;10.252;2022-12-17T18:48:18;-2.80;99.90
3186;DHT22;1604;53.700;10.252;2022-12-17T18:51:23;-2.80;99.90
3186;DHT22;1604;53.700;10.252;2022-12-17T18:54:27;-2.90;99.90
3186;DHT22;1604;53.700;10.252;2022-12-17T18:57:31;-2.80;99.90
3186;DHT22;1604;53.700;10.252;2022-12-17T19:00:33;-2.90;99.90
3186;DHT22;1604;53.700;10.252;2022-12-17T19:03:35;-3.00;99.90
3186;DHT22;1604;53.700;10.252;2022-12-17T19:06:37;-3.00;99.90
3186;DHT22;1604;53.700;10.252;2022-12-17T19:09:39;-3.10;99.90
3186;DHT22;1604;53.700;10.252;2022-12-17T19:12:43;-3.10;99.90
3186;DHT22;1604;53.700;10.252;2022-12-17T19:15:45;-3.10;99.90
3186;DHT22;1604;53.700;10.252;2022-12-17T19:18:50;-3.20;99.90
3186;DHT22;1604;53.700;10.252;2022-12-17T19:21:53;-3.20;99.90
3186;DHT22;1604;53.700;10.252;2022-12-17T19:24:55;-3.20;99.90
3186;DHT22;1604;53.700;10.252;2022-12-17T19:27:58;-3.30;99.90
3186;DHT22;1604;53.700;10.252;2022-12-17T19:31:00;-3.30;99.90
3186;DHT22;1604;53.700;10.252;2022-12-17T19:34:04;-3.20;99.90
3186;DHT22;1604;53.700;10.252;2022-12-17T19:37:06;-3.20;99.90
3186;DHT22;1604;53.700;10.252;2022-12-17T19:40:11;-3.20;99.90
3186;DHT22;1604;53.700;10.252;2022-12-17T19:43:15;-3.30;99.90
3186;DHT22;1604;53.700;10.252;2022-12-17T19:46:18;-3.30;99.90
3186;DHT22;1604;53.700;10.252;2022-12-17T19:49:20;-3.40;99.90
3186;DHT22;1604;53.700;10.252;2022-12-17T19:52:22;-3.40;99.90
3186;DHT22;1604;53.700;10.252;2022-12-17T19:55:27;-3.50;99.90
3186;DHT22;1604;53.700;10.252;2022-12-17T19:58:30;-3.50;99.90
3186;DHT22;1604;53.700;10.252;2022-12-17T20:01:34;-3.50;99.90
3186;DHT22;1604;53.700;10.252;2022-12-17T20:04:36;-3.60;99.90
3186;DHT22;1604;53.700;10.252;2022-12-17T20:07:38;-3.70;99.90
3186;DHT22;1604;53.700;10.252;2022-12-17T20:10:40;-3.70;99.90
3186;DHT22;1604;53.700;10.252;2022-12-17T20:13:44;-3.70;99.90
3186;DHT22;1604;53.700;10.252;2022-12-17T20:16:49;-3.70;99.90
3186;DHT22;1604;53.700;10.252;2022-12-17T20:19:51;-3.80;99.90
3186;DHT22;1604;53.700;10.252;2022-12-17T20:22:54;-3.70;99.90
3186;DHT22;1604;53.700;10.252;2022-12-17T20:26:03;-3.80;99.90
3186;DHT22;1604;53.700;10.252;2022-12-17T20:29:10;-3.80;99.90
3186;DHT22;1604;53.700;10.252;2022-12-17T20:32:12;-3.80;99.90
3186;DHT22;1604;53.700;10.252;2022-12-17T20:35:18;-3.70;99.90
3186;DHT22;1604;53.700;10.252;2022-12-17T20:38:21;-3.80;99.90
3186;DHT22;1604;53.700;10.252;2022-12-17T20:41:26;-3.90;99.90
3186;DHT22;1604;53.700;10.252;2022-12-17T20:44:29;-4.00;99.90
3186;DHT22;1604;53.700;10.252;2022-12-17T20:47:31;-4.10;99.90
3186;DHT22;1604;53.700;10.252;2022-12-17T20:50:37;-4.10;99.90
3186;DHT22;1604;53.700;10.252;2022-12-17T20:53:40;-4.10;99.90
3186;DHT22;1604;53.700;10.252;2022-12-17T20:56:46;-4.10;99.90
3186;DHT22;1604;53.700;10.252;2022-12-17T20:59:49;-4.10;99.90
3186;DHT22;1604;53.700;10.252;2022-12-17T21:02:51;-4.20;99.90